Back to Top

Language: 

My Weather Underground Personal Weather Station Historical Data with Graphs...

Delerius Weather Station Historical Data
Daily Summary for April 16, 2017 Units:  Both    English   Metric
« Previous Day
Next Day »
Daily Weekly Monthly Yearly Custom
  High: Low: Average:
Temperature: 54.3 °F /  12.4 °C 40.5 °F /  4.7 °C 47.4 °F /  8.6 °C
Dew Point: 48.1 °F /  8.9 °C 34.5 °F /  1.4 °C 41.6 °F /  5.3 °C
Humidity: 95 % 67 % 81 %
Wind Speed: 13.0 mph /  20.9 km/h - 7.1 mph /  11.4 km/h
Wind Gust: 22.0 mph /  35.4 km/h - -
Wind:- - West
Pressure: 30.15 in /  1020.9 hPa 30.04 in /  1017.2 hPa -
Precipitation: 0.09 in /  2.29 mm    
Historical Graphs
 
 
Tabular Data for April 16, 2017
Time Temperature Dew Point Pressure Wind Wind Speed Wind Gust Humidity Rainfall Rate (Hourly) solar Conditions
00:02 41.5 °F /  5.3 °C 34.9 °F /  1.6 °C 30.12 in /  1019.9 hPa WNW 3.0 mph /  4.8 km/h 8.0 mph /  12.9 km/h 77 % 0.00 in /  0 mm 0 W/m2
00:07 41.4 °F /  5.2 °C 35.0 °F /  1.7 °C 30.12 in /  1019.9 hPa WNW 4.0 mph /  6.4 km/h 8.0 mph /  12.9 km/h 78 % 0.00 in /  0 mm 0 W/m2
00:12 41.4 °F /  5.2 °C 35.0 °F /  1.7 °C 30.12 in /  1019.9 hPa WNW 4.0 mph /  6.4 km/h 8.0 mph /  12.9 km/h 78 % 0.00 in /  0 mm 0 W/m2
00:17 41.4 °F /  5.2 °C 35.0 °F /  1.7 °C 30.12 in /  1019.9 hPa WNW 3.0 mph /  4.8 km/h 8.0 mph /  12.9 km/h 78 % 0.00 in /  0 mm 0 W/m2
00:22 41.2 °F /  5.1 °C 34.8 °F /  1.6 °C 30.12 in /  1019.9 hPa WNW 3.0 mph /  4.8 km/h 8.0 mph /  12.9 km/h 78 % 0.00 in /  0 mm 0 W/m2
00:27 41.2 °F /  5.1 °C 34.8 °F /  1.6 °C 30.12 in /  1019.9 hPa WNW 4.0 mph /  6.4 km/h 8.0 mph /  12.9 km/h 78 % 0.00 in /  0 mm 0 W/m2
00:32 41.4 °F /  5.2 °C 35.0 °F /  1.7 °C 30.12 in /  1019.9 hPa WNW 4.0 mph /  6.4 km/h 10.0 mph /  16.1 km/h 78 % 0.00 in /  0 mm 0 W/m2
00:37 41.4 °F /  5.2 °C 35.0 °F /  1.7 °C 30.12 in /  1019.9 hPa WNW 3.0 mph /  4.8 km/h 10.0 mph /  16.1 km/h 78 % 0.00 in /  0 mm 0 W/m2
00:42 41.4 °F /  5.2 °C 35.0 °F /  1.7 °C 30.12 in /  1019.9 hPa WNW 1.0 mph /  1.6 km/h 5.0 mph /  8 km/h 78 % 0.00 in /  0 mm 0 W/m2
00:47 41.2 °F /  5.1 °C 34.8 °F /  1.6 °C 30.12 in /  1019.9 hPa Calm   1.0 mph /  1.6 km/h 78 % 0.00 in /  0 mm 0 W/m2
00:52 40.8 °F /  4.9 °C 34.5 °F /  1.4 °C 30.12 in /  1019.9 hPa Calm   2.0 mph /  3.2 km/h 78 % 0.00 in /  0 mm 0 W/m2
00:57 40.6 °F /  4.8 °C 34.6 °F /  1.4 °C 30.12 in /  1019.9 hPa West 1.0 mph /  1.6 km/h 6.0 mph /  9.7 km/h 79 % 0.00 in /  0 mm 0 W/m2
01:02 40.5 °F /  4.7 °C 34.8 °F /  1.6 °C 30.13 in /  1020.2 hPa West 2.0 mph /  3.2 km/h 7.0 mph /  11.3 km/h 80 % 0.00 in /  0 mm 0 W/m2
01:07 40.6 °F /  4.8 °C 35.0 °F /  1.7 °C 30.13 in /  1020.2 hPa West 2.0 mph /  3.2 km/h 8.0 mph /  12.9 km/h 80 % 0.00 in /  0 mm 0 W/m2
01:12 40.6 °F /  4.8 °C 35.0 °F /  1.7 °C 30.13 in /  1020.2 hPa West 2.0 mph /  3.2 km/h 8.0 mph /  12.9 km/h 80 % 0.00 in /  0 mm 0 W/m2
01:17 40.6 °F /  4.8 °C 35.0 °F /  1.7 °C 30.13 in /  1020.2 hPa West 1.0 mph /  1.6 km/h 8.0 mph /  12.9 km/h 80 % 0.00 in /  0 mm 0 W/m2
01:22 40.6 °F /  4.8 °C 35.0 °F /  1.7 °C 30.13 in /  1020.2 hPa WNW 1.0 mph /  1.6 km/h 5.0 mph /  8 km/h 80 % 0.00 in /  0 mm 0 W/m2
01:27 40.6 °F /  4.8 °C 35.3 °F /  1.8 °C 30.13 in /  1020.2 hPa WNW 3.0 mph /  4.8 km/h 9.0 mph /  14.5 km/h 81 % 0.00 in /  0 mm 0 W/m2
01:32 40.8 °F /  4.9 °C 35.4 °F /  1.9 °C 30.13 in /  1020.2 hPa WNW 5.0 mph /  8 km/h 11.0 mph /  17.7 km/h 81 % 0.00 in /  0 mm 0 W/m2
01:37 41.2 °F /  5.1 °C 35.5 °F /  1.9 °C 30.13 in /  1020.2 hPa WNW 5.0 mph /  8 km/h 11.0 mph /  17.7 km/h 80 % 0.00 in /  0 mm 0 W/m2
01:42 41.4 °F /  5.2 °C 35.7 °F /  2.1 °C 30.13 in /  1020.2 hPa WNW 4.0 mph /  6.4 km/h 11.0 mph /  17.7 km/h 80 % 0.00 in /  0 mm 0 W/m2
01:47 41.5 °F /  5.3 °C 35.5 °F /  1.9 °C 30.13 in /  1020.2 hPa WNW 5.0 mph /  8 km/h 11.0 mph /  17.7 km/h 79 % 0.00 in /  0 mm 0 W/m2
01:52 41.7 °F /  5.4 °C 35.7 °F /  2.1 °C 30.13 in /  1020.2 hPa WNW 5.0 mph /  8 km/h 11.0 mph /  17.7 km/h 79 % 0.00 in /  0 mm 0 W/m2
01:57 41.7 °F /  5.4 °C 35.7 °F /  2.1 °C 30.13 in /  1020.2 hPa WNW 5.0 mph /  8 km/h 11.0 mph /  17.7 km/h 79 % 0.00 in /  0 mm 0 W/m2
02:02 41.7 °F /  5.4 °C 35.7 °F /  2.1 °C 30.14 in /  1020.5 hPa WNW 4.0 mph /  6.4 km/h 9.0 mph /  14.5 km/h 79 % 0.00 in /  0 mm 0 W/m2
02:07 41.7 °F /  5.4 °C 35.4 °F /  1.9 °C 30.14 in /  1020.5 hPa WNW 3.0 mph /  4.8 km/h 7.0 mph /  11.3 km/h 78 % 0.00 in /  0 mm 0 W/m2
02:12 41.7 °F /  5.4 °C 35.4 °F /  1.9 °C 30.13 in /  1020.2 hPa WNW 3.0 mph /  4.8 km/h 8.0 mph /  12.9 km/h 78 % 0.00 in /  0 mm 0 W/m2
02:17 41.7 °F /  5.4 °C 35.4 °F /  1.9 °C 30.14 in /  1020.5 hPa WNW 4.0 mph /  6.4 km/h 8.0 mph /  12.9 km/h 78 % 0.00 in /  0 mm 0 W/m2
02:22 41.7 °F /  5.4 °C 35.4 °F /  1.9 °C 30.13 in /  1020.2 hPa WNW 4.0 mph /  6.4 km/h 10.0 mph /  16.1 km/h 78 % 0.00 in /  0 mm 0 W/m2
02:27 41.7 °F /  5.4 °C 35.4 °F /  1.9 °C 30.13 in /  1020.2 hPa WNW 5.0 mph /  8 km/h 10.0 mph /  16.1 km/h 78 % 0.00 in /  0 mm 0 W/m2
02:32 41.7 °F /  5.4 °C 35.7 °F /  2.1 °C 30.13 in /  1020.2 hPa WNW 6.0 mph /  9.7 km/h 10.0 mph /  16.1 km/h 79 % 0.00 in /  0 mm 0 W/m2
02:38 41.7 °F /  5.4 °C 35.4 °F /  1.9 °C 30.13 in /  1020.2 hPa WNW 5.0 mph /  8 km/h 10.0 mph /  16.1 km/h 78 % 0.00 in /  0 mm 0 W/m2
02:43 41.9 °F /  5.5 °C 35.5 °F /  1.9 °C 30.13 in /  1020.2 hPa WNW 5.0 mph /  8 km/h 13.0 mph /  20.9 km/h 78 % 0.00 in /  0 mm 0 W/m2
02:48 42.1 °F /  5.6 °C 35.7 °F /  2.1 °C 30.13 in /  1020.2 hPa WNW 8.0 mph /  12.9 km/h 14.0 mph /  22.5 km/h 78 % 0.00 in /  0 mm 0 W/m2
02:53 42.3 °F /  5.7 °C 35.9 °F /  2.2 °C 30.13 in /  1020.2 hPa WNW 8.0 mph /  12.9 km/h 16.0 mph /  25.7 km/h 78 % 0.00 in /  0 mm 0 W/m2
02:58 42.3 °F /  5.7 °C 35.9 °F /  2.2 °C 30.14 in /  1020.5 hPa WNW 8.0 mph /  12.9 km/h 16.0 mph /  25.7 km/h 78 % 0.00 in /  0 mm 0 W/m2
03:03 42.4 °F /  5.8 °C 35.7 °F /  2.1 °C 30.14 in /  1020.5 hPa WNW 8.0 mph /  12.9 km/h 15.0 mph /  24.1 km/h 77 % 0.00 in /  0 mm 0 W/m2
03:08 42.4 °F /  5.8 °C 35.7 °F /  2.1 °C 30.13 in /  1020.2 hPa WNW 7.0 mph /  11.3 km/h 14.0 mph /  22.5 km/h 77 % 0.00 in /  0 mm 0 W/m2
03:13 42.4 °F /  5.8 °C 35.7 °F /  2.1 °C 30.13 in /  1020.2 hPa WNW 6.0 mph /  9.7 km/h 10.0 mph /  16.1 km/h 77 % 0.00 in /  0 mm 0 W/m2
03:18 42.4 °F /  5.8 °C 35.7 °F /  2.1 °C 30.13 in /  1020.2 hPa WNW 5.0 mph /  8 km/h 11.0 mph /  17.7 km/h 77 % 0.00 in /  0 mm 0 W/m2
03:23 42.4 °F /  5.8 °C 35.7 °F /  2.1 °C 30.13 in /  1020.2 hPa NW 5.0 mph /  8 km/h 13.0 mph /  20.9 km/h 77 % 0.00 in /  0 mm 0 W/m2
03:28 42.4 °F /  5.8 °C 35.7 °F /  2.1 °C 30.13 in /  1020.2 hPa WNW 6.0 mph /  9.7 km/h 13.0 mph /  20.9 km/h 77 % 0.00 in /  0 mm 0 W/m2
03:33 42.6 °F /  5.9 °C 35.9 °F /  2.2 °C 30.13 in /  1020.2 hPa WNW 8.0 mph /  12.9 km/h 13.0 mph /  20.9 km/h 77 % 0.00 in /  0 mm 0 W/m2
03:38 42.6 °F /  5.9 °C 35.9 °F /  2.2 °C 30.13 in /  1020.2 hPa WNW 9.0 mph /  14.5 km/h 19.0 mph /  30.6 km/h 77 % 0.00 in /  0 mm 0 W/m2
03:43 42.6 °F /  5.9 °C 35.9 °F /  2.2 °C 30.12 in /  1019.9 hPa WNW 9.0 mph /  14.5 km/h 19.0 mph /  30.6 km/h 77 % 0.00 in /  0 mm 0 W/m2
03:48 42.8 °F /  6 °C 36.4 °F /  2.4 °C 30.13 in /  1020.2 hPa West 7.0 mph /  11.3 km/h 12.0 mph /  19.3 km/h 78 % 0.00 in /  0 mm 0 W/m2
03:53 42.8 °F /  6 °C 36.4 °F /  2.4 °C 30.13 in /  1020.2 hPa West 6.0 mph /  9.7 km/h 10.0 mph /  16.1 km/h 78 % 0.00 in /  0 mm 0 W/m2
03:58 42.8 °F /  6 °C 36.7 °F /  2.6 °C 30.13 in /  1020.2 hPa West 6.0 mph /  9.7 km/h 12.0 mph /  19.3 km/h 79 % 0.00 in /  0 mm 0 W/m2
04:03 42.8 °F /  6 °C 36.7 °F /  2.6 °C 30.13 in /  1020.2 hPa West 7.0 mph /  11.3 km/h 12.0 mph /  19.3 km/h 79 % 0.00 in /  0 mm 0 W/m2
04:08 42.8 °F /  6 °C 36.7 °F /  2.6 °C 30.13 in /  1020.2 hPa West 7.0 mph /  11.3 km/h 15.0 mph /  24.1 km/h 79 % 0.00 in /  0 mm 0 W/m2
04:13 42.8 °F /  6 °C 36.7 °F /  2.6 °C 30.13 in /  1020.2 hPa WNW 7.0 mph /  11.3 km/h 15.0 mph /  24.1 km/h 79 % 0.00 in /  0 mm 0 W/m2
04:18 43.0 °F /  6.1 °C 36.9 °F /  2.7 °C 30.13 in /  1020.2 hPa WNW 9.0 mph /  14.5 km/h 13.0 mph /  20.9 km/h 79 % 0.00 in /  0 mm 0 W/m2
04:23 43.0 °F /  6.1 °C 36.9 °F /  2.7 °C 30.13 in /  1020.2 hPa WNW 8.0 mph /  12.9 km/h 13.0 mph /  20.9 km/h 79 % 0.00 in /  0 mm 0 W/m2
04:28 43.0 °F /  6.1 °C 36.9 °F /  2.7 °C 30.13 in /  1020.2 hPa WNW 7.0 mph /  11.3 km/h 12.0 mph /  19.3 km/h 79 % 0.00 in /  0 mm 0 W/m2
04:33 43.0 °F /  6.1 °C 36.9 °F /  2.7 °C 30.13 in /  1020.2 hPa WNW 7.0 mph /  11.3 km/h 12.0 mph /  19.3 km/h 79 % 0.00 in /  0 mm 0 W/m2
04:38 43.0 °F /  6.1 °C 36.9 °F /  2.7 °C 30.13 in /  1020.2 hPa WNW 8.0 mph /  12.9 km/h 14.0 mph /  22.5 km/h 79 % 0.00 in /  0 mm 0 W/m2
04:43 43.0 °F /  6.1 °C 36.9 °F /  2.7 °C 30.13 in /  1020.2 hPa WNW 9.0 mph /  14.5 km/h 14.0 mph /  22.5 km/h 79 % 0.00 in /  0 mm 0 W/m2
04:48 43.0 °F /  6.1 °C 36.9 °F /  2.7 °C 30.13 in /  1020.2 hPa WNW 8.0 mph /  12.9 km/h 13.0 mph /  20.9 km/h 79 % 0.00 in /  0 mm 0 W/m2
04:53 43.0 °F /  6.1 °C 36.9 °F /  2.7 °C 30.13 in /  1020.2 hPa WNW 7.0 mph /  11.3 km/h 15.0 mph /  24.1 km/h 79 % 0.00 in /  0 mm 0 W/m2
04:58 43.0 °F /  6.1 °C 36.9 °F /  2.7 °C 30.13 in /  1020.2 hPa West 8.0 mph /  12.9 km/h 15.0 mph /  24.1 km/h 79 % 0.00 in /  0 mm 0 W/m2
05:03 43.2 °F /  6.2 °C 37.4 °F /  3 °C 30.13 in /  1020.2 hPa West 7.0 mph /  11.3 km/h 14.0 mph /  22.5 km/h 80 % 0.00 in /  0 mm 0 W/m2
05:08 43.2 °F /  6.2 °C 37.4 °F /  3 °C 30.13 in /  1020.2 hPa West 7.0 mph /  11.3 km/h 14.0 mph /  22.5 km/h 80 % 0.00 in /  0 mm 0 W/m2
05:14 43.2 °F /  6.2 °C 37.4 °F /  3 °C 30.13 in /  1020.2 hPa West 8.0 mph /  12.9 km/h 15.0 mph /  24.1 km/h 80 % 0.00 in /  0 mm 0 W/m2
05:19 43.2 °F /  6.2 °C 37.7 °F /  3.2 °C 30.13 in /  1020.2 hPa West 9.0 mph /  14.5 km/h 15.0 mph /  24.1 km/h 81 % 0.00 in /  0 mm 0 W/m2
05:24 43.2 °F /  6.2 °C 37.7 °F /  3.2 °C 30.13 in /  1020.2 hPa West 9.0 mph /  14.5 km/h 19.0 mph /  30.6 km/h 81 % 0.00 in /  0 mm 0 W/m2
05:29 43.2 °F /  6.2 °C 37.7 °F /  3.2 °C 30.13 in /  1020.2 hPa West 9.0 mph /  14.5 km/h 19.0 mph /  30.6 km/h 81 % 0.00 in /  0 mm 0 W/m2
05:34 43.2 °F /  6.2 °C 37.7 °F /  3.2 °C 30.13 in /  1020.2 hPa West 8.0 mph /  12.9 km/h 14.0 mph /  22.5 km/h 81 % 0.00 in /  0 mm 0 W/m2
05:35 43.0 °F /  6.1 °C 37.5 °F /  3.1 °C 30.13 in /  1020.2 hPa West 7.0 mph /  11.3 km/h 12.0 mph /  19.3 km/h 81 % 0.00 in /  0 mm 0 W/m2
05:40 43.0 °F /  6.1 °C 37.5 °F /  3.1 °C 30.13 in /  1020.2 hPa West 7.0 mph /  11.3 km/h 13.0 mph /  20.9 km/h 81 % 0.00 in /  0 mm 0 W/m2
05:45 43.0 °F /  6.1 °C 37.5 °F /  3.1 °C 30.13 in /  1020.2 hPa West 7.0 mph /  11.3 km/h 14.0 mph /  22.5 km/h 81 % 0.00 in /  0 mm 0 W/m2
05:50 43.0 °F /  6.1 °C 37.5 °F /  3.1 °C 30.13 in /  1020.2 hPa West 7.0 mph /  11.3 km/h 14.0 mph /  22.5 km/h 81 % 0.00 in /  0 mm 0 W/m2
05:55 43.0 °F /  6.1 °C 37.9 °F /  3.3 °C 30.14 in /  1020.5 hPa West 6.0 mph /  9.7 km/h 11.0 mph /  17.7 km/h 82 % 0.00 in /  0 mm 0 W/m2
06:00 42.8 °F /  6 °C 37.7 °F /  3.2 °C 30.14 in /  1020.5 hPa WNW 4.0 mph /  6.4 km/h 11.0 mph /  17.7 km/h 82 % 0.00 in /  0 mm 0 W/m2
06:05 42.8 °F /  6 °C 37.7 °F /  3.2 °C 30.14 in /  1020.5 hPa WNW 3.0 mph /  4.8 km/h 8.0 mph /  12.9 km/h 82 % 0.00 in /  0 mm 5 W/m2
06:11 42.6 °F /  5.9 °C 37.5 °F /  3.1 °C 30.14 in /  1020.5 hPa West 3.0 mph /  4.8 km/h 7.0 mph /  11.3 km/h 82 % 0.00 in /  0 mm 5 W/m2
06:16 42.6 °F /  5.9 °C 37.5 °F /  3.1 °C 30.14 in /  1020.5 hPa West 2.0 mph /  3.2 km/h 7.0 mph /  11.3 km/h 82 % 0.00 in /  0 mm 7 W/m2
06:21 42.6 °F /  5.9 °C 37.8 °F /  3.2 °C 30.14 in /  1020.5 hPa West 2.0 mph /  3.2 km/h 6.0 mph /  9.7 km/h 83 % 0.00 in /  0 mm 14 W/m2
06:26 42.6 °F /  5.9 °C 37.8 °F /  3.2 °C 30.14 in /  1020.5 hPa West 2.0 mph /  3.2 km/h 6.0 mph /  9.7 km/h 83 % 0.00 in /  0 mm 14 W/m2
06:31 42.6 °F /  5.9 °C 37.8 °F /  3.2 °C 30.14 in /  1020.5 hPa West 1.0 mph /  1.6 km/h 6.0 mph /  9.7 km/h 83 % 0.00 in /  0 mm 16 W/m2
06:36 42.6 °F /  5.9 °C 38.1 °F /  3.4 °C 30.14 in /  1020.5 hPa West 4.0 mph /  6.4 km/h 13.0 mph /  20.9 km/h 84 % 0.00 in /  0 mm 25 W/m2
06:41 42.8 °F /  6 °C 38.0 °F /  3.3 °C 30.14 in /  1020.5 hPa West 5.0 mph /  8 km/h 13.0 mph /  20.9 km/h 83 % 0.00 in /  0 mm 30 W/m2
06:46 43.0 °F /  6.1 °C 38.5 °F /  3.6 °C 30.14 in /  1020.5 hPa West 5.0 mph /  8 km/h 10.0 mph /  16.1 km/h 84 % 0.00 in /  0 mm 37 W/m2
06:51 43.0 °F /  6.1 °C 38.5 °F /  3.6 °C 30.14 in /  1020.5 hPa West 5.0 mph /  8 km/h 10.0 mph /  16.1 km/h 84 % 0.00 in /  0 mm 51 W/m2
06:56 43.2 °F /  6.2 °C 38.7 °F /  3.7 °C 30.14 in /  1020.5 hPa West 6.0 mph /  9.7 km/h 11.0 mph /  17.7 km/h 84 % 0.00 in /  0 mm 65 W/m2
07:01 43.3 °F /  6.3 °C 38.8 °F /  3.8 °C 30.15 in /  1020.9 hPa West 5.0 mph /  8 km/h 11.0 mph /  17.7 km/h 84 % 0.00 in /  0 mm 63 W/m2
07:06 43.3 °F /  6.3 °C 38.8 °F /  3.8 °C 30.15 in /  1020.9 hPa West 4.0 mph /  6.4 km/h 8.0 mph /  12.9 km/h 84 % 0.00 in /  0 mm 67 W/m2
07:11 43.5 °F /  6.4 °C 39.0 °F /  3.9 °C 30.15 in /  1020.9 hPa West 5.0 mph /  8 km/h 9.0 mph /  14.5 km/h 84 % 0.00 in /  0 mm 98 W/m2
07:16 43.7 °F /  6.5 °C 38.9 °F /  3.8 °C 30.15 in /  1020.9 hPa WNW 5.0 mph /  8 km/h 10.0 mph /  16.1 km/h 83 % 0.00 in /  0 mm 102 W/m2
07:17 43.7 °F /  6.5 °C 38.9 °F /  3.8 °C 30.15 in /  1020.9 hPa WNW 5.0 mph /  8 km/h 10.0 mph /  16.1 km/h 83 % 0.00 in /  0 mm 104 W/m2
07:22 43.9 °F /  6.6 °C 39.1 °F /  3.9 °C 30.15 in /  1020.9 hPa WNW 4.0 mph /  6.4 km/h 10.0 mph /  16.1 km/h 83 % 0.00 in /  0 mm 84 W/m2
07:27 44.1 °F /  6.7 °C 39.2 °F /  4 °C 30.15 in /  1020.9 hPa West 5.0 mph /  8 km/h 10.0 mph /  16.1 km/h 83 % 0.00 in /  0 mm 98 W/m2
07:32 44.1 °F /  6.7 °C 39.2 °F /  4 °C 30.14 in /  1020.5 hPa West 5.0 mph /  8 km/h 9.0 mph /  14.5 km/h 83 % 0.00 in /  0 mm 116 W/m2
07:37 44.2 °F /  6.8 °C 39.1 °F /  3.9 °C 30.15 in /  1020.9 hPa West 5.0 mph /  8 km/h 9.0 mph /  14.5 km/h 82 % 0.00 in /  0 mm 149 W/m2
07:42 44.4 °F /  6.9 °C 39.3 °F /  4.1 °C 30.15 in /  1020.9 hPa West 4.0 mph /  6.4 km/h 9.0 mph /  14.5 km/h 82 % 0.00 in /  0 mm 146 W/m2
07:47 44.6 °F /  7 °C 39.4 °F /  4.1 °C 30.15 in /  1020.9 hPa West 4.0 mph /  6.4 km/h 9.0 mph /  14.5 km/h 82 % 0.00 in /  0 mm 142 W/m2
07:52 44.8 °F /  7.1 °C 39.3 °F /  4.1 °C 30.15 in /  1020.9 hPa WNW 4.0 mph /  6.4 km/h 9.0 mph /  14.5 km/h 81 % 0.00 in /  0 mm 107 W/m2
07:57 45.0 °F /  7.2 °C 39.2 °F /  4 °C 30.15 in /  1020.9 hPa WNW 5.0 mph /  8 km/h 9.0 mph /  14.5 km/h 80 % 0.00 in /  0 mm 139 W/m2
08:02 45.0 °F /  7.2 °C 39.2 °F /  4 °C 30.15 in /  1020.9 hPa WNW 5.0 mph /  8 km/h 10.0 mph /  16.1 km/h 80 % 0.00 in /  0 mm 109 W/m2
08:07 45.1 °F /  7.3 °C 39.3 °F /  4.1 °C 30.15 in /  1020.9 hPa WNW 5.0 mph /  8 km/h 11.0 mph /  17.7 km/h 80 % 0.00 in /  0 mm 271 W/m2
08:12 45.7 °F /  7.6 °C 39.5 °F /  4.2 °C 30.15 in /  1020.9 hPa WNW 7.0 mph /  11.3 km/h 16.0 mph /  25.7 km/h 79 % 0.00 in /  0 mm 260 W/m2
08:17 46.2 °F /  7.9 °C 40.1 °F /  4.5 °C 30.15 in /  1020.9 hPa WNW 7.0 mph /  11.3 km/h 16.0 mph /  25.7 km/h 79 % 0.00 in /  0 mm 362 W/m2
08:22 46.8 °F /  8.2 °C 39.9 °F /  4.4 °C 30.15 in /  1020.9 hPa WNW 7.0 mph /  11.3 km/h 15.0 mph /  24.1 km/h 77 % 0.00 in /  0 mm 311 W/m2
08:27 47.1 °F /  8.4 °C 39.9 °F /  4.4 °C 30.15 in /  1020.9 hPa WNW 8.0 mph /  12.9 km/h 15.0 mph /  24.1 km/h 76 % 0.00 in /  0 mm 278 W/m2
08:32 47.3 °F /  8.5 °C 39.8 °F /  4.3 °C 30.15 in /  1020.9 hPa WNW 9.0 mph /  14.5 km/h 18.0 mph /  29 km/h 75 % 0.00 in /  0 mm 269 W/m2
08:37 47.5 °F /  8.6 °C 39.6 °F /  4.2 °C 30.15 in /  1020.9 hPa WNW 9.0 mph /  14.5 km/h 18.0 mph /  29 km/h 74 % 0.00 in /  0 mm 186 W/m2
08:42 47.7 °F /  8.7 °C 39.4 °F /  4.1 °C 30.15 in /  1020.9 hPa WNW 8.0 mph /  12.9 km/h 16.0 mph /  25.7 km/h 73 % 0.00 in /  0 mm 397 W/m2
08:47 47.8 °F /  8.8 °C 39.6 °F /  4.2 °C 30.15 in /  1020.9 hPa WNW 8.0 mph /  12.9 km/h 16.0 mph /  25.7 km/h 73 % 0.00 in /  0 mm 410 W/m2
08:52 48.0 °F /  8.9 °C 39.4 °F /  4.1 °C 30.15 in /  1020.9 hPa WNW 8.0 mph /  12.9 km/h 19.0 mph /  30.6 km/h 72 % 0.00 in /  0 mm 411 W/m2
08:57 48.6 °F /  9.2 °C 39.9 °F /  4.4 °C 30.15 in /  1020.9 hPa WNW 9.0 mph /  14.5 km/h 19.0 mph /  30.6 km/h 72 % 0.00 in /  0 mm 445 W/m2
09:02 48.9 °F /  9.4 °C 39.9 °F /  4.4 °C 30.15 in /  1020.9 hPa WNW 9.0 mph /  14.5 km/h 20.0 mph /  32.2 km/h 71 % 0.00 in /  0 mm 494 W/m2
09:07 49.5 °F /  9.7 °C 40.1 °F /  4.5 °C 30.15 in /  1020.9 hPa WNW 9.0 mph /  14.5 km/h 20.0 mph /  32.2 km/h 70 % 0.00 in /  0 mm 543 W/m2
09:12 49.6 °F /  9.8 °C 39.1 °F /  3.9 °C 30.15 in /  1020.9 hPa WNW 9.0 mph /  14.5 km/h 18.0 mph /  29 km/h 67 % 0.00 in /  0 mm 283 W/m2
09:17 49.5 °F /  9.7 °C 39.3 °F /  4.1 °C 30.15 in /  1020.9 hPa WNW 9.0 mph /  14.5 km/h 18.0 mph /  29 km/h 68 % 0.00 in /  0 mm 202 W/m2
09:22 49.3 °F /  9.6 °C 39.5 °F /  4.2 °C 30.15 in /  1020.9 hPa WNW 7.0 mph /  11.3 km/h 13.0 mph /  20.9 km/h 69 % 0.00 in /  0 mm 202 W/m2
09:27 49.3 °F /  9.6 °C 39.2 °F /  4 °C 30.15 in /  1020.9 hPa WNW 8.0 mph /  12.9 km/h 13.0 mph /  20.9 km/h 68 % 0.00 in /  0 mm 257 W/m2
09:32 48.9 °F /  9.4 °C 39.2 °F /  4 °C 30.15 in /  1020.9 hPa WNW 9.0 mph /  14.5 km/h 16.0 mph /  25.7 km/h 69 % 0.00 in /  0 mm 244 W/m2
09:37 48.9 °F /  9.4 °C 39.2 °F /  4 °C 30.15 in /  1020.9 hPa WNW 9.0 mph /  14.5 km/h 16.0 mph /  25.7 km/h 69 % 0.00 in /  0 mm 244 W/m2
09:42 48.9 °F /  9.4 °C 39.2 °F /  4 °C 30.15 in /  1020.9 hPa WNW 9.0 mph /  14.5 km/h 19.0 mph /  30.6 km/h 69 % 0.00 in /  0 mm 267 W/m2
09:47 48.9 °F /  9.4 °C 39.6 °F /  4.2 °C 30.15 in /  1020.9 hPa NW 8.0 mph /  12.9 km/h 19.0 mph /  30.6 km/h 70 % 0.00 in /  0 mm 197 W/m2
09:52 49.1 °F /  9.5 °C 39.4 °F /  4.1 °C 30.15 in /  1020.9 hPa WNW 8.0 mph /  12.9 km/h 14.0 mph /  22.5 km/h 69 % 0.00 in /  0 mm 216 W/m2
09:58 49.3 °F /  9.6 °C 39.5 °F /  4.2 °C 30.15 in /  1020.9 hPa WNW 8.0 mph /  12.9 km/h 14.0 mph /  22.5 km/h 69 % 0.00 in /  0 mm 353 W/m2
10:03 49.5 °F /  9.7 °C 39.3 °F /  4.1 °C 30.14 in /  1020.5 hPa WNW 8.0 mph /  12.9 km/h 15.0 mph /  24.1 km/h 68 % 0.00 in /  0 mm 183 W/m2
10:08 49.5 °F /  9.7 °C 39.7 °F /  4.3 °C 30.15 in /  1020.9 hPa WNW 8.0 mph /  12.9 km/h 15.0 mph /  24.1 km/h 69 % 0.00 in /  0 mm 146 W/m2
10:13 49.3 °F /  9.6 °C 39.9 °F /  4.4 °C 30.15 in /  1020.9 hPa West 9.0 mph /  14.5 km/h 15.0 mph /  24.1 km/h 70 % 0.00 in /  0 mm 135 W/m2
10:18 48.9 °F /  9.4 °C 40.6 °F /  4.8 °C 30.15 in /  1020.9 hPa West 10.0 mph /  16.1 km/h 18.0 mph /  29 km/h 73 % 0.00 in /  0 mm 109 W/m2
10:23 48.6 °F /  9.2 °C 41.0 °F /  5 °C 30.15 in /  1020.9 hPa West 8.0 mph /  12.9 km/h 18.0 mph /  29 km/h 75 % 0.00 in /  0 mm 176 W/m2
10:28 48.4 °F /  9.1 °C 41.5 °F /  5.3 °C 30.15 in /  1020.9 hPa WNW 7.0 mph /  11.3 km/h 12.0 mph /  19.3 km/h 77 % 0.00 in /  0 mm 221 W/m2
10:33 48.4 °F /  9.1 °C 41.5 °F /  5.3 °C 30.15 in /  1020.9 hPa WNW 7.0 mph /  11.3 km/h 13.0 mph /  20.9 km/h 77 % 0.00 in /  0 mm 225 W/m2
10:38 48.2 °F /  9 °C 41.3 °F /  5.2 °C 30.15 in /  1020.9 hPa West 8.0 mph /  12.9 km/h 14.0 mph /  22.5 km/h 77 % 0.00 in /  0 mm 232 W/m2
10:43 48.2 °F /  9 °C 41.3 °F /  5.2 °C 30.15 in /  1020.9 hPa West 9.0 mph /  14.5 km/h 16.0 mph /  25.7 km/h 77 % 0.00 in /  0 mm 221 W/m2
10:48 48.0 °F /  8.9 °C 41.2 °F /  5.1 °C 30.15 in /  1020.9 hPa WNW 10.0 mph /  16.1 km/h 16.0 mph /  25.7 km/h 77 % 0.00 in /  0 mm 230 W/m2
10:53 48.2 °F /  9 °C 41.0 °F /  5 °C 30.14 in /  1020.5 hPa WNW 8.0 mph /  12.9 km/h 14.0 mph /  22.5 km/h 76 % 0.00 in /  0 mm 287 W/m2
10:58 48.4 °F /  9.1 °C 41.5 °F /  5.3 °C 30.14 in /  1020.5 hPa WNW 6.0 mph /  9.7 km/h 11.0 mph /  17.7 km/h 77 % 0.00 in /  0 mm 267 W/m2
11:03 48.6 °F /  9.2 °C 41.3 °F /  5.2 °C 30.14 in /  1020.5 hPa West 6.0 mph /  9.7 km/h 11.0 mph /  17.7 km/h 76 % 0.00 in /  0 mm 269 W/m2
11:08 48.7 °F /  9.3 °C 41.5 °F /  5.3 °C 30.14 in /  1020.5 hPa West 7.0 mph /  11.3 km/h 12.0 mph /  19.3 km/h 76 % 0.00 in /  0 mm 309 W/m2
11:13 48.9 °F /  9.4 °C 41.3 °F /  5.2 °C 30.14 in /  1020.5 hPa West 7.0 mph /  11.3 km/h 12.0 mph /  19.3 km/h 75 % 0.00 in /  0 mm 292 W/m2
11:18 49.3 °F /  9.6 °C 41.7 °F /  5.4 °C 30.14 in /  1020.5 hPa West 7.0 mph /  11.3 km/h 12.0 mph /  19.3 km/h 75 % 0.00 in /  0 mm 287 W/m2
11:23 49.3 °F /  9.6 °C 41.7 °F /  5.4 °C 30.14 in /  1020.5 hPa West 8.0 mph /  12.9 km/h 14.0 mph /  22.5 km/h 75 % 0.00 in /  0 mm 197 W/m2
11:28 49.5 °F /  9.7 °C 41.5 °F /  5.3 °C 30.14 in /  1020.5 hPa WNW 8.0 mph /  12.9 km/h 15.0 mph /  24.1 km/h 74 % 0.00 in /  0 mm 155 W/m2
11:33 49.5 °F /  9.7 °C 41.9 °F /  5.5 °C 30.14 in /  1020.5 hPa WNW 8.0 mph /  12.9 km/h 15.0 mph /  24.1 km/h 75 % 0.00 in /  0 mm 264 W/m2
11:38 49.5 °F /  9.7 °C 41.9 °F /  5.5 °C 30.14 in /  1020.5 hPa West 7.0 mph /  11.3 km/h 13.0 mph /  20.9 km/h 75 % 0.00 in /  0 mm 332 W/m2
11:43 49.6 °F /  9.8 °C 42.0 °F /  5.6 °C 30.14 in /  1020.5 hPa West 8.0 mph /  12.9 km/h 14.0 mph /  22.5 km/h 75 % 0.00 in /  0 mm 345 W/m2
11:48 49.8 °F /  9.9 °C 42.2 °F /  5.7 °C 30.13 in /  1020.2 hPa West 9.0 mph /  14.5 km/h 15.0 mph /  24.1 km/h 75 % 0.00 in /  0 mm 420 W/m2
11:53 50.2 °F /  10.1 °C 42.9 °F /  6.1 °C 30.13 in /  1020.2 hPa West 9.0 mph /  14.5 km/h 15.0 mph /  24.1 km/h 76 % 0.00 in /  0 mm 371 W/m2
11:58 50.5 °F /  10.3 °C 42.9 °F /  6.1 °C 30.13 in /  1020.2 hPa West 9.0 mph /  14.5 km/h 15.0 mph /  24.1 km/h 75 % 0.00 in /  0 mm 267 W/m2
12:03 50.5 °F /  10.3 °C 42.6 °F /  5.9 °C 30.13 in /  1020.2 hPa West 9.0 mph /  14.5 km/h 15.0 mph /  24.1 km/h 74 % 0.00 in /  0 mm 155 W/m2
12:08 50.4 °F /  10.2 °C 42.4 °F /  5.8 °C 30.13 in /  1020.2 hPa West 8.0 mph /  12.9 km/h 14.0 mph /  22.5 km/h 74 % 0.00 in /  0 mm 163 W/m2
12:13 50.2 °F /  10.1 °C 42.6 °F /  5.9 °C 30.13 in /  1020.2 hPa West 8.0 mph /  12.9 km/h 13.0 mph /  20.9 km/h 75 % 0.00 in /  0 mm 243 W/m2
12:18 50.2 °F /  10.1 °C 43.2 °F /  6.2 °C 30.13 in /  1020.2 hPa West 8.0 mph /  12.9 km/h 14.0 mph /  22.5 km/h 77 % 0.00 in /  0 mm 144 W/m2
12:23 50.0 °F /  10 °C 43.1 °F /  6.2 °C 30.13 in /  1020.2 hPa WSW 8.0 mph /  12.9 km/h 14.0 mph /  22.5 km/h 77 % 0.00 in /  0 mm 100 W/m2
12:28 49.8 °F /  9.9 °C 43.2 °F /  6.2 °C 30.13 in /  1020.2 hPa WSW 8.0 mph /  12.9 km/h 14.0 mph /  22.5 km/h 78 % 0.00 in /  0 mm 295 W/m2
12:33 49.8 °F /  9.9 °C 43.2 °F /  6.2 °C 30.13 in /  1020.2 hPa West 9.0 mph /  14.5 km/h 16.0 mph /  25.7 km/h 78 % 0.00 in /  0 mm 462 W/m2
12:38 50.2 °F /  10.1 °C 43.2 °F /  6.2 °C 30.12 in /  1019.9 hPa West 10.0 mph /  16.1 km/h 16.0 mph /  25.7 km/h 77 % 0.00 in /  0 mm 258 W/m2
12:43 50.5 °F /  10.3 °C 43.6 °F /  6.4 °C 30.12 in /  1019.9 hPa West 10.0 mph /  16.1 km/h 16.0 mph /  25.7 km/h 77 % 0.00 in /  0 mm 294 W/m2
12:48 50.4 °F /  10.2 °C 43.4 °F /  6.3 °C 30.12 in /  1019.9 hPa West 9.0 mph /  14.5 km/h 14.0 mph /  22.5 km/h 77 % 0.00 in /  0 mm 214 W/m2
12:53 50.5 °F /  10.3 °C 43.6 °F /  6.4 °C 30.12 in /  1019.9 hPa WSW 8.0 mph /  12.9 km/h 14.0 mph /  22.5 km/h 77 % 0.00 in /  0 mm 457 W/m2
12:58 50.7 °F /  10.4 °C 43.8 °F /  6.6 °C 30.12 in /  1019.9 hPa West 9.0 mph /  14.5 km/h 16.0 mph /  25.7 km/h 77 % 0.00 in /  0 mm 148 W/m2
13:03 50.9 °F /  10.5 °C 43.9 °F /  6.6 °C 30.12 in /  1019.9 hPa West 10.0 mph /  16.1 km/h 18.0 mph /  29 km/h 77 % 0.00 in /  0 mm 264 W/m2
13:09 50.9 °F /  10.5 °C 43.3 °F /  6.3 °C 30.12 in /  1019.9 hPa West 10.0 mph /  16.1 km/h 22.0 mph /  35.4 km/h 75 % 0.00 in /  0 mm 285 W/m2
13:14 50.7 °F /  10.4 °C 43.1 °F /  6.2 °C 30.11 in /  1019.5 hPa West 12.0 mph /  19.3 km/h 22.0 mph /  35.4 km/h 75 % 0.00 in /  0 mm 339 W/m2
13:19 51.1 °F /  10.6 °C 43.4 °F /  6.3 °C 30.11 in /  1019.5 hPa West 11.0 mph /  17.7 km/h 20.0 mph /  32.2 km/h 75 % 0.00 in /  0 mm 276 W/m2
13:24 51.1 °F /  10.6 °C 43.4 °F /  6.3 °C 30.11 in /  1019.5 hPa West 9.0 mph /  14.5 km/h 16.0 mph /  25.7 km/h 75 % 0.00 in /  0 mm 190 W/m2
13:29 51.1 °F /  10.6 °C 43.1 °F /  6.2 °C 30.11 in /  1019.5 hPa WSW 8.0 mph /  12.9 km/h 14.0 mph /  22.5 km/h 74 % 0.00 in /  0 mm 229 W/m2
13:34 51.1 °F /  10.6 °C 43.1 °F /  6.2 °C 30.11 in /  1019.5 hPa WSW 8.0 mph /  12.9 km/h 14.0 mph /  22.5 km/h 74 % 0.00 in /  0 mm 255 W/m2
13:39 50.9 °F /  10.5 °C 42.9 °F /  6.1 °C 30.11 in /  1019.5 hPa WSW 9.0 mph /  14.5 km/h 18.0 mph /  29 km/h 74 % 0.00 in /  0 mm 250 W/m2
13:44 50.9 °F /  10.5 °C 43.3 °F /  6.3 °C 30.10 in /  1019.2 hPa WSW 9.0 mph /  14.5 km/h 18.0 mph /  29 km/h 75 % 0.00 in /  0 mm 287 W/m2
13:49 51.1 °F /  10.6 °C 45.1 °F /  7.3 °C 30.10 in /  1019.2 hPa WSW 8.0 mph /  12.9 km/h 12.0 mph /  19.3 km/h 80 % 0.00 in /  0 mm 306 W/m2
13:54 51.1 °F /  10.6 °C 44.5 °F /  6.9 °C 30.10 in /  1019.2 hPa WSW 8.0 mph /  12.9 km/h 16.0 mph /  25.7 km/h 78 % 0.00 in /  0 mm 339 W/m2
13:59 51.3 °F /  10.7 °C 44.6 °F /  7 °C 30.10 in /  1019.2 hPa WSW 9.0 mph /  14.5 km/h 16.0 mph /  25.7 km/h 78 % 0.00 in /  0 mm 193 W/m2
14:04 51.3 °F /  10.7 °C 44.3 °F /  6.8 °C 30.10 in /  1019.2 hPa WSW 9.0 mph /  14.5 km/h 19.0 mph /  30.6 km/h 77 % 0.00 in /  0 mm 216 W/m2
14:09 51.3 °F /  10.7 °C 44.3 °F /  6.8 °C 30.10 in /  1019.2 hPa WSW 9.0 mph /  14.5 km/h 19.0 mph /  30.6 km/h 77 % 0.00 in /  0 mm 218 W/m2
14:14 51.4 °F /  10.8 °C 44.5 °F /  6.9 °C 30.09 in /  1018.8 hPa WSW 8.0 mph /  12.9 km/h 16.0 mph /  25.7 km/h 77 % 0.00 in /  0 mm 258 W/m2
14:19 51.6 °F /  10.9 °C 44.3 °F /  6.8 °C 30.09 in /  1018.8 hPa WSW 8.0 mph /  12.9 km/h 16.0 mph /  25.7 km/h 76 % 0.00 in /  0 mm 207 W/m2
14:21 51.6 °F /  10.9 °C 44.3 °F /  6.8 °C 30.09 in /  1018.8 hPa WSW 9.0 mph /  14.5 km/h 19.0 mph /  30.6 km/h 76 % 0.00 in /  0 mm 197 W/m2
14:26 51.8 °F /  11 °C 44.5 °F /  6.9 °C 30.09 in /  1018.8 hPa WSW 9.0 mph /  14.5 km/h 19.0 mph /  30.6 km/h 76 % 0.00 in /  0 mm 162 W/m2
14:32 51.6 °F /  10.9 °C 45.3 °F /  7.4 °C 30.09 in /  1018.8 hPa WSW 9.0 mph /  14.5 km/h 19.0 mph /  30.6 km/h 79 % 0.00 in /  0 mm 162 W/m2
14:37 51.4 °F /  10.8 °C 45.5 °F /  7.5 °C 30.09 in /  1018.8 hPa WSW 9.0 mph /  14.5 km/h 15.0 mph /  24.1 km/h 80 % 0.00 in /  0 mm 162 W/m2
14:42 51.1 °F /  10.6 °C 45.5 °F /  7.5 °C 30.09 in /  1018.8 hPa WSW 8.0 mph /  12.9 km/h 15.0 mph /  24.1 km/h 81 % 0.00 in /  0 mm 178 W/m2
14:43 51.1 °F /  10.6 °C 45.5 °F /  7.5 °C 30.09 in /  1018.8 hPa WSW 9.0 mph /  14.5 km/h 15.0 mph /  24.1 km/h 81 % 0.00 in /  0 mm 179 W/m2
14:48 51.1 °F /  10.6 °C 45.8 °F /  7.7 °C 30.08 in /  1018.5 hPa WSW 7.0 mph /  11.3 km/h 13.0 mph /  20.9 km/h 82 % 0.00 in /  0 mm 158 W/m2
14:53 51.3 °F /  10.7 °C 46.0 °F /  7.8 °C 30.08 in /  1018.5 hPa West 6.0 mph /  9.7 km/h 10.0 mph /  16.1 km/h 82 % 0.00 in /  0 mm 234 W/m2
14:58 51.6 °F /  10.9 °C 46.3 °F /  7.9 °C 30.08 in /  1018.5 hPa West 5.0 mph /  8 km/h 10.0 mph /  16.1 km/h 82 % 0.00 in /  0 mm 216 W/m2
15:03 52.0 °F /  11.1 °C 46.0 °F /  7.8 °C 30.08 in /  1018.5 hPa West 7.0 mph /  11.3 km/h 14.0 mph /  22.5 km/h 80 % 0.00 in /  0 mm 192 W/m2
15:08 52.3 °F /  11.3 °C 46.0 °F /  7.8 °C 30.07 in /  1018.2 hPa West 9.0 mph /  14.5 km/h 14.0 mph /  22.5 km/h 79 % 0.00 in /  0 mm 241 W/m2
15:13 52.7 °F /  11.5 °C 46.4 °F /  8 °C 30.07 in /  1018.2 hPa West 9.0 mph /  14.5 km/h 18.0 mph /  29 km/h 79 % 0.00 in /  0 mm 243 W/m2
15:18 52.9 °F /  11.6 °C 45.9 °F /  7.7 °C 30.07 in /  1018.2 hPa West 11.0 mph /  17.7 km/h 19.0 mph /  30.6 km/h 77 % 0.00 in /  0 mm 225 W/m2
15:23 53.1 °F /  11.7 °C 46.0 °F /  7.8 °C 30.07 in /  1018.2 hPa West 12.0 mph /  19.3 km/h 20.0 mph /  32.2 km/h 77 % 0.00 in /  0 mm 214 W/m2
15:28 53.1 °F /  11.7 °C 46.0 °F /  7.8 °C 30.07 in /  1018.2 hPa West 12.0 mph /  19.3 km/h 20.0 mph /  32.2 km/h 77 % 0.00 in /  0 mm 290 W/m2
15:33 53.1 °F /  11.7 °C 46.0 °F /  7.8 °C 30.07 in /  1018.2 hPa West 11.0 mph /  17.7 km/h 18.0 mph /  29 km/h 77 % 0.00 in /  0 mm 271 W/m2
15:38 53.1 °F /  11.7 °C 46.0 °F /  7.8 °C 30.07 in /  1018.2 hPa West 11.0 mph /  17.7 km/h 22.0 mph /  35.4 km/h 77 % 0.00 in /  0 mm 294 W/m2
15:43 53.1 °F /  11.7 °C 46.0 °F /  7.8 °C 30.07 in /  1018.2 hPa West 10.0 mph /  16.1 km/h 22.0 mph /  35.4 km/h 77 % 0.00 in /  0 mm 200 W/m2
15:48 53.1 °F /  11.7 °C 46.4 °F /  8 °C 30.07 in /  1018.2 hPa West 9.0 mph /  14.5 km/h 15.0 mph /  24.1 km/h 78 % 0.00 in /  0 mm 183 W/m2
15:53 53.1 °F /  11.7 °C 46.7 °F /  8.2 °C 30.07 in /  1018.2 hPa West 9.0 mph /  14.5 km/h 15.0 mph /  24.1 km/h 79 % 0.00 in /  0 mm 174 W/m2
15:58 53.1 °F /  11.7 °C 46.7 °F /  8.2 °C 30.07 in /  1018.2 hPa West 9.0 mph /  14.5 km/h 19.0 mph /  30.6 km/h 79 % 0.00 in /  0 mm 130 W/m2
16:03 52.9 °F /  11.6 °C 46.5 °F /  8.1 °C 30.07 in /  1018.2 hPa West 11.0 mph /  17.7 km/h 22.0 mph /  35.4 km/h 79 % 0.00 in /  0 mm 121 W/m2
16:09 52.9 °F /  11.6 °C 46.5 °F /  8.1 °C 30.07 in /  1018.2 hPa West 11.0 mph /  17.7 km/h 22.0 mph /  35.4 km/h 79 % 0.00 in /  0 mm 102 W/m2
16:14 52.5 °F /  11.4 °C 46.5 °F /  8.1 °C 30.07 in /  1018.2 hPa West 10.0 mph /  16.1 km/h 18.0 mph /  29 km/h 80 % 0.00 in /  0 mm 113 W/m2
16:19 52.3 °F /  11.3 °C 46.7 °F /  8.2 °C 30.07 in /  1018.2 hPa West 9.0 mph /  14.5 km/h 18.0 mph /  29 km/h 81 % 0.00 in /  0 mm 102 W/m2
16:24 52.3 °F /  11.3 °C 46.7 °F /  8.2 °C 30.06 in /  1017.8 hPa West 9.0 mph /  14.5 km/h 18.0 mph /  29 km/h 81 % 0.00 in /  0 mm 163 W/m2
16:29 52.3 °F /  11.3 °C 47.0 °F /  8.3 °C 30.06 in /  1017.8 hPa West 9.0 mph /  14.5 km/h 15.0 mph /  24.1 km/h 82 % 0.00 in /  0 mm 329 W/m2
16:34 52.9 °F /  11.6 °C 47.9 °F /  8.8 °C 30.06 in /  1017.8 hPa West 9.0 mph /  14.5 km/h 18.0 mph /  29 km/h 83 % 0.00 in /  0 mm 264 W/m2
16:39 53.2 °F /  11.8 °C 47.9 °F /  8.8 °C 30.06 in /  1017.8 hPa WNW 11.0 mph /  17.7 km/h 21.0 mph /  33.8 km/h 82 % 0.00 in /  0 mm 403 W/m2
16:44 53.8 °F /  12.1 °C 48.1 °F /  8.9 °C 30.05 in /  1017.5 hPa WNW 12.0 mph /  19.3 km/h 21.0 mph /  33.8 km/h 81 % 0.00 in /  0 mm 577 W/m2
16:49 54.0 °F /  12.2 °C 47.6 °F /  8.7 °C 30.05 in /  1017.5 hPa West 12.0 mph /  19.3 km/h 21.0 mph /  33.8 km/h 79 % 0.00 in /  0 mm 202 W/m2
16:54 53.8 °F /  12.1 °C 47.1 °F /  8.4 °C 30.05 in /  1017.5 hPa West 11.0 mph /  17.7 km/h 21.0 mph /  33.8 km/h 78 % 0.00 in /  0 mm 276 W/m2
16:59 54.0 °F /  12.2 °C 47.6 °F /  8.7 °C 30.05 in /  1017.5 hPa West 11.0 mph /  17.7 km/h 20.0 mph /  32.2 km/h 79 % 0.00 in /  0 mm 378 W/m2
17:04 54.1 °F /  12.3 °C 47.4 °F /  8.6 °C 30.05 in /  1017.5 hPa West 13.0 mph /  20.9 km/h 22.0 mph /  35.4 km/h 78 % 0.00 in /  0 mm 200 W/m2
17:09 54.1 °F /  12.3 °C 47.4 °F /  8.6 °C 30.05 in /  1017.5 hPa West 13.0 mph /  20.9 km/h 22.0 mph /  35.4 km/h 78 % 0.00 in /  0 mm 176 W/m2
17:14 54.1 °F /  12.3 °C 47.4 °F /  8.6 °C 30.05 in /  1017.5 hPa WNW 11.0 mph /  17.7 km/h 20.0 mph /  32.2 km/h 78 % 0.00 in /  0 mm 116 W/m2
17:19 54.1 °F /  12.3 °C 47.4 °F /  8.6 °C 30.05 in /  1017.5 hPa WNW 10.0 mph /  16.1 km/h 20.0 mph /  32.2 km/h 78 % 0.00 in /  0 mm 149 W/m2
17:24 54.1 °F /  12.3 °C 47.8 °F /  8.8 °C 30.05 in /  1017.5 hPa WNW 9.0 mph /  14.5 km/h 15.0 mph /  24.1 km/h 79 % 0.00 in /  0 mm 113 W/m2
17:29 54.3 °F /  12.4 °C 47.6 °F /  8.7 °C 30.05 in /  1017.5 hPa WNW 7.0 mph /  11.3 km/h 15.0 mph /  24.1 km/h 78 % 0.00 in /  0 mm 123 W/m2
17:34 54.1 °F /  12.3 °C 47.4 °F /  8.6 °C 30.05 in /  1017.5 hPa WNW 7.0 mph /  11.3 km/h 16.0 mph /  25.7 km/h 78 % 0.00 in /  0 mm 113 W/m2
17:39 54.1 °F /  12.3 °C 47.4 °F /  8.6 °C 30.05 in /  1017.5 hPa WNW 9.0 mph /  14.5 km/h 20.0 mph /  32.2 km/h 78 % 0.00 in /  0 mm 156 W/m2
17:44 54.1 °F /  12.3 °C 47.8 °F /  8.8 °C 30.05 in /  1017.5 hPa WNW 8.0 mph /  12.9 km/h 20.0 mph /  32.2 km/h 79 % 0.00 in /  0 mm 190 W/m2
17:49 54.1 °F /  12.3 °C 47.4 °F /  8.6 °C 30.04 in /  1017.2 hPa WNW 7.0 mph /  11.3 km/h 16.0 mph /  25.7 km/h 78 % 0.00 in /  0 mm 120 W/m2
17:54 54.1 °F /  12.3 °C 47.1 °F /  8.4 °C 30.04 in /  1017.2 hPa WNW 9.0 mph /  14.5 km/h 16.0 mph /  25.7 km/h 77 % 0.00 in /  0 mm 105 W/m2
17:59 54.1 °F /  12.3 °C 47.1 °F /  8.4 °C 30.04 in /  1017.2 hPa WNW 9.0 mph /  14.5 km/h 18.0 mph /  29 km/h 77 % 0.00 in /  0 mm 121 W/m2
18:04 54.0 °F /  12.2 °C 47.3 °F /  8.5 °C 30.04 in /  1017.2 hPa WNW 11.0 mph /  17.7 km/h 20.0 mph /  32.2 km/h 78 % 0.00 in /  0 mm 118 W/m2
18:09 53.8 °F /  12.1 °C 47.1 °F /  8.4 °C 30.04 in /  1017.2 hPa WNW 12.0 mph /  19.3 km/h 20.0 mph /  32.2 km/h 78 % 0.00 in /  0 mm 111 W/m2
18:15 53.8 °F /  12.1 °C 47.1 °F /  8.4 °C 30.04 in /  1017.2 hPa WNW 10.0 mph /  16.1 km/h 20.0 mph /  32.2 km/h 78 % 0.00 in /  0 mm 118 W/m2
18:20 53.8 °F /  12.1 °C 47.1 °F /  8.4 °C 30.04 in /  1017.2 hPa WNW 10.0 mph /  16.1 km/h 20.0 mph /  32.2 km/h 78 % 0.00 in /  0 mm 76 W/m2
18:25 53.8 °F /  12.1 °C 47.4 °F /  8.6 °C 30.05 in /  1017.5 hPa WNW 12.0 mph /  19.3 km/h 20.0 mph /  32.2 km/h 79 % 0.00 in /  0 mm 60 W/m2
18:30 53.4 °F /  11.9 °C 47.4 °F /  8.6 °C 30.05 in /  1017.5 hPa WNW 13.0 mph /  20.9 km/h 21.0 mph /  33.8 km/h 80 % 0.00 in /  0 mm 86 W/m2
18:35 52.9 °F /  11.6 °C 47.5 °F /  8.6 °C 30.05 in /  1017.5 hPa WNW 13.0 mph /  20.9 km/h 21.0 mph /  33.8 km/h 82 % 0.00 in /  0 mm 76 W/m2
18:40 52.5 °F /  11.4 °C 47.5 °F /  8.6 °C 30.05 in /  1017.5 hPa WNW 11.0 mph /  17.7 km/h 21.0 mph /  33.8 km/h 83 % 0.00 in /  0 mm 69 W/m2
18:45 52.2 °F /  11.2 °C 47.5 °F /  8.6 °C 30.05 in /  1017.5 hPa WNW 9.0 mph /  14.5 km/h 19.0 mph /  30.6 km/h 84 % 0.00 in /  0 mm 65 W/m2
18:50 52.0 °F /  11.1 °C 47.6 °F /  8.7 °C 30.05 in /  1017.5 hPa WNW 9.0 mph /  14.5 km/h 18.0 mph /  29 km/h 85 % 0.00 in /  0 mm 79 W/m2
18:55 52.0 °F /  11.1 °C 47.9 °F /  8.8 °C 30.05 in /  1017.5 hPa WNW 9.0 mph /  14.5 km/h 18.0 mph /  29 km/h 86 % 0.00 in /  0 mm 60 W/m2
19:00 51.8 °F /  11 °C 48.1 °F /  8.9 °C 30.05 in /  1017.5 hPa WNW 7.0 mph /  11.3 km/h 13.0 mph /  20.9 km/h 87 % 0.00 in /  0 mm 42 W/m2
19:05 51.6 °F /  10.9 °C 47.9 °F /  8.8 °C 30.04 in /  1017.2 hPa WNW 7.0 mph /  11.3 km/h 16.0 mph /  25.7 km/h 87 % 0.00 in /  0 mm 79 W/m2
19:10 51.6 °F /  10.9 °C 47.9 °F /  8.8 °C 30.04 in /  1017.2 hPa WNW 8.0 mph /  12.9 km/h 16.0 mph /  25.7 km/h 87 % 0.00 in /  0 mm 63 W/m2
19:15 51.6 °F /  10.9 °C 47.9 °F /  8.8 °C 30.04 in /  1017.2 hPa WNW 8.0 mph /  12.9 km/h 15.0 mph /  24.1 km/h 87 % 0.00 in /  0 mm 49 W/m2
19:20 51.6 °F /  10.9 °C 47.6 °F /  8.7 °C 30.04 in /  1017.2 hPa WNW 9.0 mph /  14.5 km/h 15.0 mph /  24.1 km/h 86 % 0.00 in /  0 mm 44 W/m2
19:25 51.4 °F /  10.8 °C 47.4 °F /  8.6 °C 30.04 in /  1017.2 hPa WNW 11.0 mph /  17.7 km/h 18.0 mph /  29 km/h 86 % 0.00 in /  0 mm 26 W/m2
19:30 51.4 °F /  10.8 °C 47.1 °F /  8.4 °C 30.04 in /  1017.2 hPa WNW 11.0 mph /  17.7 km/h 18.0 mph /  29 km/h 85 % 0.00 in /  0 mm 26 W/m2
19:35 51.3 °F /  10.7 °C 46.9 °F /  8.3 °C 30.04 in /  1017.2 hPa WNW 10.0 mph /  16.1 km/h 18.0 mph /  29 km/h 85 % 0.00 in /  0 mm 26 W/m2
19:40 51.3 °F /  10.7 °C 46.9 °F /  8.3 °C 30.04 in /  1017.2 hPa WNW 10.0 mph /  16.1 km/h 15.0 mph /  24.1 km/h 85 % 0.00 in /  0 mm 28 W/m2
19:41 51.3 °F /  10.7 °C 46.9 °F /  8.3 °C 30.04 in /  1017.2 hPa WNW 9.0 mph /  14.5 km/h 15.0 mph /  24.1 km/h 85 % 0.00 in /  0 mm 26 W/m2
19:46 51.1 °F /  10.6 °C 46.7 °F /  8.2 °C 30.04 in /  1017.2 hPa WNW 9.0 mph /  14.5 km/h 16.0 mph /  25.7 km/h 85 % 0.00 in /  0 mm 14 W/m2
19:51 51.1 °F /  10.6 °C 46.7 °F /  8.2 °C 30.04 in /  1017.2 hPa WNW 8.0 mph /  12.9 km/h 16.0 mph /  25.7 km/h 85 % 0.00 in /  0 mm 11 W/m2
19:56 50.7 °F /  10.4 °C 46.7 °F /  8.2 °C 30.04 in /  1017.2 hPa WNW 8.0 mph /  12.9 km/h 14.0 mph /  22.5 km/h 86 % 0.00 in /  0 mm 7 W/m2
20:01 50.5 °F /  10.3 °C 46.5 °F /  8.1 °C 30.04 in /  1017.2 hPa WNW 9.0 mph /  14.5 km/h 19.0 mph /  30.6 km/h 86 % 0.00 in /  0 mm 5 W/m2
20:06 50.4 °F /  10.2 °C 46.3 °F /  7.9 °C 30.05 in /  1017.5 hPa WNW 8.0 mph /  12.9 km/h 19.0 mph /  30.6 km/h 86 % 0.00 in /  0 mm 0 W/m2
20:11 50.2 °F /  10.1 °C 46.5 °F /  8.1 °C 30.05 in /  1017.5 hPa WNW 7.0 mph /  11.3 km/h 15.0 mph /  24.1 km/h 87 % 0.00 in /  0 mm 0 W/m2
20:16 49.8 °F /  9.9 °C 46.1 °F /  7.8 °C 30.05 in /  1017.5 hPa WNW 8.0 mph /  12.9 km/h 16.0 mph /  25.7 km/h 87 % 0.00 in /  0 mm 0 W/m2
20:21 49.6 °F /  9.8 °C 45.9 °F /  7.7 °C 30.05 in /  1017.5 hPa WNW 9.0 mph /  14.5 km/h 16.0 mph /  25.7 km/h 87 % 0.00 in /  0 mm 0 W/m2
20:26 49.6 °F /  9.8 °C 45.6 °F /  7.6 °C 30.05 in /  1017.5 hPa WNW 8.0 mph /  12.9 km/h 15.0 mph /  24.1 km/h 86 % 0.00 in /  0 mm 0 W/m2
20:31 49.5 °F /  9.7 °C 45.8 °F /  7.7 °C 30.05 in /  1017.5 hPa WNW 8.0 mph /  12.9 km/h 13.0 mph /  20.9 km/h 87 % 0.00 in /  0 mm 0 W/m2
20:36 49.5 °F /  9.7 °C 45.8 °F /  7.7 °C 30.05 in /  1017.5 hPa WNW 7.0 mph /  11.3 km/h 14.0 mph /  22.5 km/h 87 % 0.00 in /  0 mm 0 W/m2
20:41 49.3 °F /  9.6 °C 45.6 °F /  7.6 °C 30.06 in /  1017.8 hPa WNW 7.0 mph /  11.3 km/h 14.0 mph /  22.5 km/h 87 % 0.00 in /  0 mm 0 W/m2
20:46 49.1 °F /  9.5 °C 45.4 °F /  7.4 °C 30.06 in /  1017.8 hPa WNW 7.0 mph /  11.3 km/h 12.0 mph /  19.3 km/h 87 % 0.00 in /  0 mm 0 W/m2
20:51 48.9 °F /  9.4 °C 45.2 °F /  7.3 °C 30.06 in /  1017.8 hPa WNW 6.0 mph /  9.7 km/h 11.0 mph /  17.7 km/h 87 % 0.00 in /  0 mm 0 W/m2
20:57 48.9 °F /  9.4 °C 45.5 °F /  7.5 °C 30.06 in /  1017.8 hPa WNW 6.0 mph /  9.7 km/h 11.0 mph /  17.7 km/h 88 % 0.00 in /  0 mm 0 W/m2
21:02 48.9 °F /  9.4 °C 45.5 °F /  7.5 °C 30.06 in /  1017.8 hPa WNW 7.0 mph /  11.3 km/h 13.0 mph /  20.9 km/h 88 % 0.00 in /  0 mm 0 W/m2
21:07 48.9 °F /  9.4 °C 45.5 °F /  7.5 °C 30.07 in /  1018.2 hPa NW 7.0 mph /  11.3 km/h 13.0 mph /  20.9 km/h 88 % 0.00 in /  0 mm 0 W/m2
21:12 48.9 °F /  9.4 °C 45.5 °F /  7.5 °C 30.07 in /  1018.2 hPa NW 7.0 mph /  11.3 km/h 13.0 mph /  20.9 km/h 88 % 0.01 in /  0.25 mm 0 W/m2
21:17 48.7 °F /  9.3 °C 45.6 °F /  7.6 °C 30.07 in /  1018.2 hPa NNW 6.0 mph /  9.7 km/h 13.0 mph /  20.9 km/h 89 % 0.02 in /  0.51 mm 0 W/m2
21:22 48.6 °F /  9.2 °C 45.8 °F /  7.7 °C 30.07 in /  1018.2 hPa NNW 5.0 mph /  8 km/h 12.0 mph /  19.3 km/h 90 % 0.02 in /  0.51 mm 0 W/m2
21:27 48.4 °F /  9.1 °C 45.6 °F /  7.6 °C 30.07 in /  1018.2 hPa NNW 5.0 mph /  8 km/h 10.0 mph /  16.1 km/h 90 % 0.02 in /  0.51 mm 0 W/m2
21:32 48.0 °F /  8.9 °C 45.5 °F /  7.5 °C 30.08 in /  1018.5 hPa North 5.0 mph /  8 km/h 10.0 mph /  16.1 km/h 91 % 0.02 in /  0.51 mm 0 W/m2
21:37 47.8 °F /  8.8 °C 45.3 °F /  7.4 °C 30.08 in /  1018.5 hPa North 5.0 mph /  8 km/h 9.0 mph /  14.5 km/h 91 % 0.02 in /  0.51 mm 0 W/m2
21:42 47.7 °F /  8.7 °C 45.2 °F /  7.3 °C 30.08 in /  1018.5 hPa North 4.0 mph /  6.4 km/h 8.0 mph /  12.9 km/h 91 % 0.03 in /  0.76 mm 0 W/m2
21:47 47.5 °F /  8.6 °C 45.3 °F /  7.4 °C 30.08 in /  1018.5 hPa NNW 4.0 mph /  6.4 km/h 8.0 mph /  12.9 km/h 92 % 0.03 in /  0.76 mm 0 W/m2
21:52 47.5 °F /  8.6 °C 45.0 °F /  7.2 °C 30.08 in /  1018.5 hPa NNW 4.0 mph /  6.4 km/h 8.0 mph /  12.9 km/h 91 % 0.03 in /  0.76 mm 0 W/m2
21:57 47.1 °F /  8.4 °C 44.9 °F /  7.2 °C 30.08 in /  1018.5 hPa North 5.0 mph /  8 km/h 10.0 mph /  16.1 km/h 92 % 0.03 in /  0.76 mm 0 W/m2
22:02 46.9 °F /  8.3 °C 44.7 °F /  7.1 °C 30.09 in /  1018.8 hPa NNE 6.0 mph /  9.7 km/h 10.0 mph /  16.1 km/h 92 % 0.04 in /  1.02 mm 0 W/m2
22:07 46.6 °F /  8.1 °C 44.4 °F /  6.9 °C 30.09 in /  1018.8 hPa NNE 6.0 mph /  9.7 km/h 10.0 mph /  16.1 km/h 92 % 0.05 in /  1.27 mm 0 W/m2
22:12 46.4 °F /  8 °C 44.2 °F /  6.8 °C 30.09 in /  1018.8 hPa NNE 5.0 mph /  8 km/h 9.0 mph /  14.5 km/h 92 % 0.04 in /  1.02 mm 0 W/m2
22:17 46.2 °F /  7.9 °C 44.3 °F /  6.8 °C 30.09 in /  1018.8 hPa North 5.0 mph /  8 km/h 9.0 mph /  14.5 km/h 93 % 0.04 in /  1.02 mm 0 W/m2
22:22 46.0 °F /  7.8 °C 44.1 °F /  6.7 °C 30.09 in /  1018.8 hPa North 5.0 mph /  8 km/h 9.0 mph /  14.5 km/h 93 % 0.03 in /  0.76 mm 0 W/m2
22:27 45.7 °F /  7.6 °C 43.8 °F /  6.6 °C 30.10 in /  1019.2 hPa North 6.0 mph /  9.7 km/h 12.0 mph /  19.3 km/h 93 % 0.04 in /  1.02 mm 0 W/m2
22:32 45.5 °F /  7.5 °C 43.6 °F /  6.4 °C 30.10 in /  1019.2 hPa North 7.0 mph /  11.3 km/h 14.0 mph /  22.5 km/h 93 % 0.04 in /  1.02 mm 0 W/m2
22:37 45.1 °F /  7.3 °C 43.2 °F /  6.2 °C 30.10 in /  1019.2 hPa North 7.0 mph /  11.3 km/h 14.0 mph /  22.5 km/h 93 % 0.04 in /  1.02 mm 0 W/m2
22:42 45.1 °F /  7.3 °C 43.2 °F /  6.2 °C 30.10 in /  1019.2 hPa North 5.0 mph /  8 km/h 11.0 mph /  17.7 km/h 93 % 0.04 in /  1.02 mm 0 W/m2
22:47 45.0 °F /  7.2 °C 43.3 °F /  6.3 °C 30.10 in /  1019.2 hPa North 4.0 mph /  6.4 km/h 9.0 mph /  14.5 km/h 94 % 0.05 in /  1.27 mm 0 W/m2
22:49 45.0 °F /  7.2 °C 43.3 °F /  6.3 °C 30.10 in /  1019.2 hPa NNE 4.0 mph /  6.4 km/h 9.0 mph /  14.5 km/h 94 % 0.05 in /  1.27 mm 0 W/m2
22:54 44.8 °F /  7.1 °C 43.2 °F /  6.2 °C 30.10 in /  1019.2 hPa NNE 5.0 mph /  8 km/h 12.0 mph /  19.3 km/h 94 % 0.05 in /  1.27 mm 0 W/m2
22:59 44.6 °F /  7 °C 43.0 °F /  6.1 °C 30.10 in /  1019.2 hPa NNE 6.0 mph /  9.7 km/h 12.0 mph /  19.3 km/h 94 % 0.05 in /  1.27 mm 0 W/m2
23:04 44.4 °F /  6.9 °C 42.8 °F /  6 °C 30.10 in /  1019.2 hPa NNE 5.0 mph /  8 km/h 11.0 mph /  17.7 km/h 94 % 0.04 in /  1.02 mm 0 W/m2
23:09 44.2 °F /  6.8 °C 42.6 °F /  5.9 °C 30.11 in /  1019.5 hPa NNE 6.0 mph /  9.7 km/h 11.0 mph /  17.7 km/h 94 % 0.03 in /  0.76 mm 0 W/m2
23:14 44.1 °F /  6.7 °C 42.4 °F /  5.8 °C 30.11 in /  1019.5 hPa NNE 6.0 mph /  9.7 km/h 12.0 mph /  19.3 km/h 94 % 0.02 in /  0.51 mm 0 W/m2
23:19 43.9 °F /  6.6 °C 42.3 °F /  5.7 °C 30.11 in /  1019.5 hPa NNE 6.0 mph /  9.7 km/h 12.0 mph /  19.3 km/h 94 % 0.02 in /  0.51 mm 0 W/m2
23:24 43.7 °F /  6.5 °C 42.1 °F /  5.6 °C 30.11 in /  1019.5 hPa NNE 6.0 mph /  9.7 km/h 12.0 mph /  19.3 km/h 94 % 0.02 in /  0.51 mm 0 W/m2
23:29 43.3 °F /  6.3 °C 41.7 °F /  5.4 °C 30.11 in /  1019.5 hPa NE 6.0 mph /  9.7 km/h 12.0 mph /  19.3 km/h 94 % 0.02 in /  0.51 mm 0 W/m2
23:34 43.3 °F /  6.3 °C 41.7 °F /  5.4 °C 30.11 in /  1019.5 hPa NE 6.0 mph /  9.7 km/h 10.0 mph /  16.1 km/h 94 % 0.02 in /  0.51 mm 0 W/m2
23:39 43.2 °F /  6.2 °C 41.6 °F /  5.3 °C 30.11 in /  1019.5 hPa NE 6.0 mph /  9.7 km/h 13.0 mph /  20.9 km/h 94 % 0.02 in /  0.51 mm 0 W/m2
23:44 43.2 °F /  6.2 °C 41.6 °F /  5.3 °C 30.12 in /  1019.9 hPa NE 5.0 mph /  8 km/h 13.0 mph /  20.9 km/h 94 % 0.01 in /  0.25 mm 0 W/m2
23:49 43.0 °F /  6.1 °C 41.6 °F /  5.3 °C 30.12 in /  1019.9 hPa NE 3.0 mph /  4.8 km/h 8.0 mph /  12.9 km/h 95 % 0.01 in /  0.25 mm 0 W/m2
23:54 43.0 °F /  6.1 °C 41.6 °F /  5.3 °C 30.12 in /  1019.9 hPa NE 3.0 mph /  4.8 km/h 8.0 mph /  12.9 km/h 95 % 0.01 in /  0.25 mm 0 W/m2
23:59 43.0 °F /  6.1 °C 41.6 °F /  5.3 °C 30.12 in /  1019.9 hPa NE 3.0 mph /  4.8 km/h 7.0 mph /  11.3 km/h 95 % 0.01 in /  0.25 mm 0 W/m2
Delerius-Weather
Compliments of Weather Underground - 2.25 mb

Data updates at regular intervals.